sensor_id;sensor_type;location;lat;lon;timestamp;P1;durP1;ratioP1;P2;durP2;ratioP2
11970;SDS011;6045;42.682;23.294;2022-07-29T00:01:38;8.63;;;7.70;;
11970;SDS011;6045;42.682;23.294;2022-07-29T00:04:04;8.60;;;7.57;;
11970;SDS011;6045;42.682;23.294;2022-07-29T00:06:31;8.15;;;7.35;;
11970;SDS011;6045;42.682;23.294;2022-07-29T00:08:58;8.38;;;7.57;;
11970;SDS011;6045;42.682;23.294;2022-07-29T00:11:24;8.77;;;7.88;;
11970;SDS011;6045;42.682;23.294;2022-07-29T00:13:51;8.02;;;7.22;;
11970;SDS011;6045;42.682;23.294;2022-07-29T00:16:18;8.13;;;7.38;;
11970;SDS011;6045;42.682;23.294;2022-07-29T00:18:46;8.32;;;7.53;;
11970;SDS011;6045;42.682;23.294;2022-07-29T00:21:13;8.38;;;7.45;;
11970;SDS011;6045;42.682;23.294;2022-07-29T00:23:39;9.73;;;7.70;;
11970;SDS011;6045;42.682;23.294;2022-07-29T00:26:06;7.70;;;6.75;;
11970;SDS011;6045;42.682;23.294;2022-07-29T00:28:33;8.18;;;7.32;;
11970;SDS011;6045;42.682;23.294;2022-07-29T00:31:00;7.88;;;7.07;;
11970;SDS011;6045;42.682;23.294;2022-07-29T00:33:26;7.28;;;6.57;;
11970;SDS011;6045;42.682;23.294;2022-07-29T00:35:55;7.88;;;7.10;;
11970;SDS011;6045;42.682;23.294;2022-07-29T00:38:21;7.22;;;6.53;;
11970;SDS011;6045;42.682;23.294;2022-07-29T00:40:48;7.32;;;6.72;;
11970;SDS011;6045;42.682;23.294;2022-07-29T00:43:15;7.85;;;7.03;;
11970;SDS011;6045;42.682;23.294;2022-07-29T00:45:43;7.90;;;7.10;;
11970;SDS011;6045;42.682;23.294;2022-07-29T00:48:09;7.07;;;6.38;;
11970;SDS011;6045;42.682;23.294;2022-07-29T00:50:36;7.82;;;7.00;;
11970;SDS011;6045;42.682;23.294;2022-07-29T00:53:06;7.72;;;7.03;;
11970;SDS011;6045;42.682;23.294;2022-07-29T00:55:34;10.10;;;8.55;;
11970;SDS011;6045;42.682;23.294;2022-07-29T00:58:01;8.55;;;7.75;;
11970;SDS011;6045;42.682;23.294;2022-07-29T01:00:29;10.57;;;9.13;;
11970;SDS011;6045;42.682;23.294;2022-07-29T01:02:56;9.90;;;8.90;;
11970;SDS011;6045;42.682;23.294;2022-07-29T01:05:23;9.75;;;8.93;;
11970;SDS011;6045;42.682;23.294;2022-07-29T01:07:53;8.70;;;7.80;;
11970;SDS011;6045;42.682;23.294;2022-07-29T01:10:22;10.55;;;8.93;;
11970;SDS011;6045;42.682;23.294;2022-07-29T01:12:50;10.18;;;9.18;;
11970;SDS011;6045;42.682;23.294;2022-07-29T01:15:18;9.70;;;8.80;;
11970;SDS011;6045;42.682;23.294;2022-07-29T01:17:50;9.60;;;8.70;;
11970;SDS011;6045;42.682;23.294;2022-07-29T01:20:23;9.38;;;8.45;;
11970;SDS011;6045;42.682;23.294;2022-07-29T01:23:01;10.20;;;9.20;;
11970;SDS011;6045;42.682;23.294;2022-07-29T01:25:52;10.05;;;8.98;;
11970;SDS011;6045;42.682;23.294;2022-07-29T01:28:51;9.02;;;8.13;;
11970;SDS011;6045;42.682;23.294;2022-07-29T01:31:30;9.73;;;8.73;;
11970;SDS011;6045;42.682;23.294;2022-07-29T01:34:02;10.88;;;9.00;;
11970;SDS011;6045;42.682;23.294;2022-07-29T01:36:33;10.10;;;9.05;;
11970;SDS011;6045;42.682;23.294;2022-07-29T01:39:05;11.07;;;9.88;;
11970;SDS011;6045;42.682;23.294;2022-07-29T01:41:35;12.38;;;9.88;;
11970;SDS011;6045;42.682;23.294;2022-07-29T01:44:10;10.82;;;9.48;;
11970;SDS011;6045;42.682;23.294;2022-07-29T01:46:41;10.10;;;9.10;;
11970;SDS011;6045;42.682;23.294;2022-07-29T01:49:16;10.55;;;9.00;;
11970;SDS011;6045;42.682;23.294;2022-07-29T01:51:48;10.25;;;9.35;;
11970;SDS011;6045;42.682;23.294;2022-07-29T01:54:18;10.48;;;9.48;;
11970;SDS011;6045;42.682;23.294;2022-07-29T01:56:49;11.32;;;9.32;;
11970;SDS011;6045;42.682;23.294;2022-07-29T01:59:21;10.30;;;9.30;;
11970;SDS011;6045;42.682;23.294;2022-07-29T02:01:49;11.25;;;9.57;;
11970;SDS011;6045;42.682;23.294;2022-07-29T02:04:19;11.25;;;10.15;;
11970;SDS011;6045;42.682;23.294;2022-07-29T02:06:47;10.43;;;9.40;;
11970;SDS011;6045;42.682;23.294;2022-07-29T02:09:16;10.40;;;9.40;;
11970;SDS011;6045;42.682;23.294;2022-07-29T02:11:47;11.20;;;9.50;;
11970;SDS011;6045;42.682;23.294;2022-07-29T02:14:17;10.30;;;9.30;;
11970;SDS011;6045;42.682;23.294;2022-07-29T02:16:48;10.85;;;9.82;;
11970;SDS011;6045;42.682;23.294;2022-07-29T02:19:18;9.73;;;8.73;;
11970;SDS011;6045;42.682;23.294;2022-07-29T02:21:47;11.18;;;9.20;;
11970;SDS011;6045;42.682;23.294;2022-07-29T02:24:17;10.32;;;9.32;;
11970;SDS011;6045;42.682;23.294;2022-07-29T02:26:45;10.65;;;9.45;;
11970;SDS011;6045;42.682;23.294;2022-07-29T02:29:13;10.50;;;9.32;;
11970;SDS011;6045;42.682;23.294;2022-07-29T02:31:42;9.82;;;8.85;;
11970;SDS011;6045;42.682;23.294;2022-07-29T02:34:13;11.38;;;9.82;;
11970;SDS011;6045;42.682;23.294;2022-07-29T02:36:43;10.23;;;9.23;;
11970;SDS011;6045;42.682;23.294;2022-07-29T02:39:11;10.77;;;8.63;;
11970;SDS011;6045;42.682;23.294;2022-07-29T02:41:41;10.38;;;9.20;;
11970;SDS011;6045;42.682;23.294;2022-07-29T02:44:11;10.35;;;9.35;;
11970;SDS011;6045;42.682;23.294;2022-07-29T02:46:41;9.77;;;8.77;;
11970;SDS011;6045;42.682;23.294;2022-07-29T02:49:15;10.82;;;9.73;;
11970;SDS011;6045;42.682;23.294;2022-07-29T02:51:46;10.23;;;9.10;;
11970;SDS011;6045;42.682;23.294;2022-07-29T02:54:22;9.93;;;9.00;;
11970;SDS011;6045;42.682;23.294;2022-07-29T02:56:52;9.38;;;8.48;;
11970;SDS011;6045;42.682;23.294;2022-07-29T02:59:22;9.15;;;8.05;;
11970;SDS011;6045;42.682;23.294;2022-07-29T03:01:53;10.15;;;9.15;;
11970;SDS011;6045;42.682;23.294;2022-07-29T03:04:23;10.10;;;9.05;;
11970;SDS011;6045;42.682;23.294;2022-07-29T03:06:53;9.68;;;8.45;;
11970;SDS011;6045;42.682;23.294;2022-07-29T03:09:21;10.00;;;8.25;;
11970;SDS011;6045;42.682;23.294;2022-07-29T03:11:49;10.88;;;9.77;;
11970;SDS011;6045;42.682;23.294;2022-07-29T03:14:16;10.32;;;9.23;;
11970;SDS011;6045;42.682;23.294;2022-07-29T03:16:43;9.85;;;8.85;;
11970;SDS011;6045;42.682;23.294;2022-07-29T03:19:11;10.35;;;9.27;;
11970;SDS011;6045;42.682;23.294;2022-07-29T03:21:40;9.93;;;8.93;;
11970;SDS011;6045;42.682;23.294;2022-07-29T03:24:07;10.35;;;9.02;;
11970;SDS011;6045;42.682;23.294;2022-07-29T03:26:34;11.40;;;10.30;;
11970;SDS011;6045;42.682;23.294;2022-07-29T03:29:04;10.60;;;9.43;;
11970;SDS011;6045;42.682;23.294;2022-07-29T03:31:30;10.85;;;9.75;;
11970;SDS011;6045;42.682;23.294;2022-07-29T03:33:57;10.70;;;9.60;;
11970;SDS011;6045;42.682;23.294;2022-07-29T03:36:26;10.48;;;9.35;;
11970;SDS011;6045;42.682;23.294;2022-07-29T03:38:54;10.55;;;9.45;;
11970;SDS011;6045;42.682;23.294;2022-07-29T03:41:22;10.55;;;9.55;;
11970;SDS011;6045;42.682;23.294;2022-07-29T03:43:50;10.38;;;9.23;;
11970;SDS011;6045;42.682;23.294;2022-07-29T03:46:19;11.93;;;9.38;;
11970;SDS011;6045;42.682;23.294;2022-07-29T03:48:48;11.23;;;9.25;;
11970;SDS011;6045;42.682;23.294;2022-07-29T03:51:18;9.77;;;8.80;;
11970;SDS011;6045;42.682;23.294;2022-07-29T03:53:45;9.98;;;8.70;;
11970;SDS011;6045;42.682;23.294;2022-07-29T03:56:14;9.23;;;8.23;;
11970;SDS011;6045;42.682;23.294;2022-07-29T03:58:43;10.75;;;9.65;;
11970;SDS011;6045;42.682;23.294;2022-07-29T04:01:10;9.90;;;8.90;;
11970;SDS011;6045;42.682;23.294;2022-07-29T04:03:38;10.32;;;9.05;;
11970;SDS011;6045;42.682;23.294;2022-07-29T04:06:06;10.30;;;8.75;;
11970;SDS011;6045;42.682;23.294;2022-07-29T04:08:33;10.73;;;8.65;;
11970;SDS011;6045;42.682;23.294;2022-07-29T04:11:00;11.57;;;9.05;;
11970;SDS011;6045;42.682;23.294;2022-07-29T04:13:28;11.65;;;9.88;;
11970;SDS011;6045;42.682;23.294;2022-07-29T04:15:55;9.70;;;8.77;;
11970;SDS011;6045;42.682;23.294;2022-07-29T04:18:23;10.20;;;9.20;;
11970;SDS011;6045;42.682;23.294;2022-07-29T04:20:49;10.95;;;9.23;;
11970;SDS011;6045;42.682;23.294;2022-07-29T04:23:16;12.43;;;10.23;;
11970;SDS011;6045;42.682;23.294;2022-07-29T04:25:43;10.63;;;9.52;;
11970;SDS011;6045;42.682;23.294;2022-07-29T04:28:10;11.73;;;10.55;;
11970;SDS011;6045;42.682;23.294;2022-07-29T04:30:38;12.52;;;10.82;;
11970;SDS011;6045;42.682;23.294;2022-07-29T04:33:05;10.98;;;9.88;;
11970;SDS011;6045;42.682;23.294;2022-07-29T04:35:34;9.95;;;8.95;;
11970;SDS011;6045;42.682;23.294;2022-07-29T04:38:02;12.25;;;10.95;;
11970;SDS011;6045;42.682;23.294;2022-07-29T04:40:30;10.27;;;9.20;;
11970;SDS011;6045;42.682;23.294;2022-07-29T04:42:58;11.35;;;10.18;;
11970;SDS011;6045;42.682;23.294;2022-07-29T04:45:25;10.80;;;9.68;;
11970;SDS011;6045;42.682;23.294;2022-07-29T04:47:53;11.82;;;10.63;;
11970;SDS011;6045;42.682;23.294;2022-07-29T04:50:20;11.13;;;10.02;;
11970;SDS011;6045;42.682;23.294;2022-07-29T04:52:47;12.02;;;9.88;;
11970;SDS011;6045;42.682;23.294;2022-07-29T04:55:14;13.32;;;11.13;;
11970;SDS011;6045;42.682;23.294;2022-07-29T04:57:41;11.75;;;10.60;;
11970;SDS011;6045;42.682;23.294;2022-07-29T05:00:08;14.40;;;11.65;;
11970;SDS011;6045;42.682;23.294;2022-07-29T05:02:36;12.20;;;10.95;;
11970;SDS011;6045;42.682;23.294;2022-07-29T05:05:05;12.98;;;10.88;;
11970;SDS011;6045;42.682;23.294;2022-07-29T05:07:32;11.55;;;10.45;;
11970;SDS011;6045;42.682;23.294;2022-07-29T05:09:59;10.63;;;9.18;;
11970;SDS011;6045;42.682;23.294;2022-07-29T05:12:25;10.73;;;9.55;;
11970;SDS011;6045;42.682;23.294;2022-07-29T05:14:52;10.15;;;9.15;;
11970;SDS011;6045;42.682;23.294;2022-07-29T05:17:19;10.15;;;9.15;;
11970;SDS011;6045;42.682;23.294;2022-07-29T05:19:46;9.82;;;8.93;;
11970;SDS011;6045;42.682;23.294;2022-07-29T05:22:14;10.35;;;8.75;;
11970;SDS011;6045;42.682;23.294;2022-07-29T05:24:41;10.73;;;9.63;;
11970;SDS011;6045;42.682;23.294;2022-07-29T05:27:08;10.40;;;8.57;;
11970;SDS011;6045;42.682;23.294;2022-07-29T05:29:34;8.80;;;7.85;;
11970;SDS011;6045;42.682;23.294;2022-07-29T05:32:01;10.88;;;9.13;;
11970;SDS011;6045;42.682;23.294;2022-07-29T05:34:28;9.45;;;8.50;;
11970;SDS011;6045;42.682;23.294;2022-07-29T05:36:55;9.80;;;8.80;;
11970;SDS011;6045;42.682;23.294;2022-07-29T05:39:24;10.35;;;9.38;;
11970;SDS011;6045;42.682;23.294;2022-07-29T05:41:51;9.93;;;9.02;;
11970;SDS011;6045;42.682;23.294;2022-07-29T05:44:17;10.05;;;8.50;;
11970;SDS011;6045;42.682;23.294;2022-07-29T05:46:44;9.10;;;7.30;;
11970;SDS011;6045;42.682;23.294;2022-07-29T05:49:11;11.05;;;8.07;;
11970;SDS011;6045;42.682;23.294;2022-07-29T05:51:38;9.45;;;8.18;;
11970;SDS011;6045;42.682;23.294;2022-07-29T05:54:05;8.55;;;7.75;;
11970;SDS011;6045;42.682;23.294;2022-07-29T05:56:33;10.32;;;7.75;;
11970;SDS011;6045;42.682;23.294;2022-07-29T05:59:02;7.50;;;6.75;;
11970;SDS011;6045;42.682;23.294;2022-07-29T06:01:28;8.23;;;7.40;;
11970;SDS011;6045;42.682;23.294;2022-07-29T06:03:56;8.43;;;7.15;;
11970;SDS011;6045;42.682;23.294;2022-07-29T06:06:23;7.95;;;6.82;;
11970;SDS011;6045;42.682;23.294;2022-07-29T06:08:50;7.35;;;6.65;;
11970;SDS011;6045;42.682;23.294;2022-07-29T06:11:17;6.85;;;6.25;;
11970;SDS011;6045;42.682;23.294;2022-07-29T06:13:45;7.43;;;6.72;;
11970;SDS011;6045;42.682;23.294;2022-07-29T06:16:12;7.30;;;5.82;;
11970;SDS011;6045;42.682;23.294;2022-07-29T06:18:39;8.77;;;6.88;;
11970;SDS011;6045;42.682;23.294;2022-07-29T06:21:07;7.10;;;6.50;;
11970;SDS011;6045;42.682;23.294;2022-07-29T06:23:35;6.40;;;5.75;;
11970;SDS011;6045;42.682;23.294;2022-07-29T06:26:03;5.78;;;5.28;;
11970;SDS011;6045;42.682;23.294;2022-07-29T06:28:30;6.30;;;5.43;;
11970;SDS011;6045;42.682;23.294;2022-07-29T06:31:01;5.95;;;5.45;;
11970;SDS011;6045;42.682;23.294;2022-07-29T06:33:28;5.63;;;5.13;;
11970;SDS011;6045;42.682;23.294;2022-07-29T06:35:54;5.60;;;5.10;;
11970;SDS011;6045;42.682;23.294;2022-07-29T06:38:21;6.20;;;5.00;;
11970;SDS011;6045;42.682;23.294;2022-07-29T06:40:48;6.95;;;5.97;;
11970;SDS011;6045;42.682;23.294;2022-07-29T06:43:27;6.05;;;5.53;;
11970;SDS011;6045;42.682;23.294;2022-07-29T06:45:59;6.15;;;5.55;;
11970;SDS011;6045;42.682;23.294;2022-07-29T06:48:29;5.57;;;5.07;;
11970;SDS011;6045;42.682;23.294;2022-07-29T06:50:55;5.95;;;5.28;;
11970;SDS011;6045;42.682;23.294;2022-07-29T06:53:22;6.30;;;5.80;;
11970;SDS011;6045;42.682;23.294;2022-07-29T06:55:50;6.35;;;5.75;;
11970;SDS011;6045;42.682;23.294;2022-07-29T06:58:17;6.53;;;5.70;;
11970;SDS011;6045;42.682;23.294;2022-07-29T07:00:46;5.72;;;5.22;;
11970;SDS011;6045;42.682;23.294;2022-07-29T07:03:14;5.38;;;4.97;;
11970;SDS011;6045;42.682;23.294;2022-07-29T07:05:42;5.85;;;5.22;;
11970;SDS011;6045;42.682;23.294;2022-07-29T07:08:09;5.28;;;4.80;;
11970;SDS011;6045;42.682;23.294;2022-07-29T07:10:36;5.78;;;5.32;;
11970;SDS011;6045;42.682;23.294;2022-07-29T07:13:03;6.18;;;5.32;;
11970;SDS011;6045;42.682;23.294;2022-07-29T07:15:31;6.03;;;5.38;;
11970;SDS011;6045;42.682;23.294;2022-07-29T07:17:58;5.95;;;5.35;;
11970;SDS011;6045;42.682;23.294;2022-07-29T07:20:26;6.00;;;5.13;;
11970;SDS011;6045;42.682;23.294;2022-07-29T07:22:52;6.00;;;5.50;;
11970;SDS011;6045;42.682;23.294;2022-07-29T07:25:19;5.97;;;5.47;;
11970;SDS011;6045;42.682;23.294;2022-07-29T07:27:46;5.78;;;5.07;;
11970;SDS011;6045;42.682;23.294;2022-07-29T07:30:13;6.10;;;5.35;;
11970;SDS011;6045;42.682;23.294;2022-07-29T07:32:42;6.65;;;5.03;;
11970;SDS011;6045;42.682;23.294;2022-07-29T07:35:09;5.70;;;5.20;;
11970;SDS011;6045;42.682;23.294;2022-07-29T07:37:38;5.70;;;5.20;;
11970;SDS011;6045;42.682;23.294;2022-07-29T07:40:07;5.90;;;5.40;;
11970;SDS011;6045;42.682;23.294;2022-07-29T07:42:35;7.45;;;4.88;;
11970;SDS011;6045;42.682;23.294;2022-07-29T07:45:02;6.40;;;5.40;;
11970;SDS011;6045;42.682;23.294;2022-07-29T07:47:29;6.10;;;4.82;;
11970;SDS011;6045;42.682;23.294;2022-07-29T07:49:56;4.15;;;3.75;;
11970;SDS011;6045;42.682;23.294;2022-07-29T07:52:23;5.05;;;4.55;;
11970;SDS011;6045;42.682;23.294;2022-07-29T07:54:51;4.90;;;4.40;;
11970;SDS011;6045;42.682;23.294;2022-07-29T07:57:18;4.45;;;4.03;;
11970;SDS011;6045;42.682;23.294;2022-07-29T07:59:45;4.80;;;4.40;;
11970;SDS011;6045;42.682;23.294;2022-07-29T08:02:11;5.00;;;4.50;;
11970;SDS011;6045;42.682;23.294;2022-07-29T08:04:38;5.32;;;4.53;;
11970;SDS011;6045;42.682;23.294;2022-07-29T08:07:06;4.57;;;4.18;;
11970;SDS011;6045;42.682;23.294;2022-07-29T08:09:33;5.00;;;4.60;;
11970;SDS011;6045;42.682;23.294;2022-07-29T08:12:02;4.45;;;4.07;;
11970;SDS011;6045;42.682;23.294;2022-07-29T08:14:30;4.65;;;4.22;;
11970;SDS011;6045;42.682;23.294;2022-07-29T08:16:58;4.78;;;4.38;;
11970;SDS011;6045;42.682;23.294;2022-07-29T08:19:25;4.43;;;4.03;;
11970;SDS011;6045;42.682;23.294;2022-07-29T08:21:52;4.63;;;4.22;;
11970;SDS011;6045;42.682;23.294;2022-07-29T08:24:19;4.65;;;4.25;;
11970;SDS011;6045;42.682;23.294;2022-07-29T08:27:05;4.40;;;4.00;;
11970;SDS011;6045;42.682;23.294;2022-07-29T08:29:31;4.60;;;4.15;;
11970;SDS011;6045;42.682;23.294;2022-07-29T08:31:58;4.70;;;4.30;;
11970;SDS011;6045;42.682;23.294;2022-07-29T08:34:25;4.97;;;4.55;;
11970;SDS011;6045;42.682;23.294;2022-07-29T08:36:52;4.35;;;3.97;;
11970;SDS011;6045;42.682;23.294;2022-07-29T08:39:18;4.65;;;4.22;;
11970;SDS011;6045;42.682;23.294;2022-07-29T08:41:45;5.50;;;3.95;;
11970;SDS011;6045;42.682;23.294;2022-07-29T08:44:14;5.40;;;4.90;;
11970;SDS011;6045;42.682;23.294;2022-07-29T08:46:41;4.90;;;3.92;;
11970;SDS011;6045;42.682;23.294;2022-07-29T08:49:08;3.92;;;3.63;;
11970;SDS011;6045;42.682;23.294;2022-07-29T08:51:35;4.13;;;3.72;;
11970;SDS011;6045;42.682;23.294;2022-07-29T08:54:05;5.13;;;4.18;;
11970;SDS011;6045;42.682;23.294;2022-07-29T08:56:32;3.85;;;3.55;;
11970;SDS011;6045;42.682;23.294;2022-07-29T08:59:02;5.25;;;4.10;;
11970;SDS011;6045;42.682;23.294;2022-07-29T09:01:31;4.40;;;4.00;;
11970;SDS011;6045;42.682;23.294;2022-07-29T09:03:59;3.97;;;3.42;;
11970;SDS011;6045;42.682;23.294;2022-07-29T09:06:30;3.90;;;3.60;;
11970;SDS011;6045;42.682;23.294;2022-07-29T09:09:00;4.00;;;3.70;;
11970;SDS011;6045;42.682;23.294;2022-07-29T09:11:27;3.78;;;3.35;;
11970;SDS011;6045;42.682;23.294;2022-07-29T09:13:54;4.57;;;4.18;;
11970;SDS011;6045;42.682;23.294;2022-07-29T09:16:21;4.30;;;3.90;;
11970;SDS011;6045;42.682;23.294;2022-07-29T09:18:49;3.70;;;3.40;;
11970;SDS011;6045;42.682;23.294;2022-07-29T09:21:16;3.85;;;3.55;;
11970;SDS011;6045;42.682;23.294;2022-07-29T09:24:02;3.90;;;3.60;;
11970;SDS011;6045;42.682;23.294;2022-07-29T09:26:33;3.92;;;3.63;;
11970;SDS011;6045;42.682;23.294;2022-07-29T09:29:07;4.32;;;3.72;;
11970;SDS011;6045;42.682;23.294;2022-07-29T09:31:36;4.15;;;3.75;;
11970;SDS011;6045;42.682;23.294;2022-07-29T09:34:05;4.30;;;3.90;;
11970;SDS011;6045;42.682;23.294;2022-07-29T09:36:38;3.92;;;3.60;;
11970;SDS011;6045;42.682;23.294;2022-07-29T09:39:05;5.15;;;4.10;;
11970;SDS011;6045;42.682;23.294;2022-07-29T09:41:43;4.30;;;3.78;;
11970;SDS011;6045;42.682;23.294;2022-07-29T09:44:12;4.20;;;3.80;;
11970;SDS011;6045;42.682;23.294;2022-07-29T09:46:40;4.28;;;3.90;;
11970;SDS011;6045;42.682;23.294;2022-07-29T09:49:10;4.40;;;4.03;;
11970;SDS011;6045;42.682;23.294;2022-07-29T09:51:39;4.10;;;3.80;;
11970;SDS011;6045;42.682;23.294;2022-07-29T09:54:23;4.72;;;4.32;;
11970;SDS011;6045;42.682;23.294;2022-07-29T09:56:51;4.80;;;4.22;;
11970;SDS011;6045;42.682;23.294;2022-07-29T09:59:19;4.50;;;4.10;;
11970;SDS011;6045;42.682;23.294;2022-07-29T10:01:49;4.68;;;4.28;;
11970;SDS011;6045;42.682;23.294;2022-07-29T10:04:17;4.35;;;3.95;;
11970;SDS011;6045;42.682;23.294;2022-07-29T10:06:57;5.22;;;4.72;;
11970;SDS011;6045;42.682;23.294;2022-07-29T10:09:25;4.90;;;4.47;;
11970;SDS011;6045;42.682;23.294;2022-07-29T10:12:08;5.13;;;4.63;;
11970;SDS011;6045;42.682;23.294;2022-07-29T10:14:39;5.13;;;4.60;;
11970;SDS011;6045;42.682;23.294;2022-07-29T10:17:07;4.82;;;4.40;;
11970;SDS011;6045;42.682;23.294;2022-07-29T10:19:37;5.30;;;4.50;;
11970;SDS011;6045;42.682;23.294;2022-07-29T10:22:05;5.45;;;4.45;;
11970;SDS011;6045;42.682;23.294;2022-07-29T10:24:33;6.32;;;4.75;;
11970;SDS011;6045;42.682;23.294;2022-07-29T10:27:01;4.35;;;3.95;;
11970;SDS011;6045;42.682;23.294;2022-07-29T10:29:29;4.88;;;4.47;;
11970;SDS011;6045;42.682;23.294;2022-07-29T10:32:08;4.45;;;3.95;;
11970;SDS011;6045;42.682;23.294;2022-07-29T10:35:06;4.22;;;3.83;;
11970;SDS011;6045;42.682;23.294;2022-07-29T10:37:52;4.10;;;3.72;;
11970;SDS011;6045;42.682;23.294;2022-07-29T10:40:32;4.38;;;3.97;;
11970;SDS011;6045;42.682;23.294;2022-07-29T10:43:25;5.55;;;4.20;;
11970;SDS011;6045;42.682;23.294;2022-07-29T10:45:55;4.68;;;4.03;;
11970;SDS011;6045;42.682;23.294;2022-07-29T10:48:23;5.07;;;4.57;;
11970;SDS011;6045;42.682;23.294;2022-07-29T10:50:56;5.53;;;4.32;;
11970;SDS011;6045;42.682;23.294;2022-07-29T10:53:25;6.32;;;4.75;;
11970;SDS011;6045;42.682;23.294;2022-07-29T10:56:22;5.70;;;5.10;;
11970;SDS011;6045;42.682;23.294;2022-07-29T11:01:51;4.85;;;4.45;;
11970;SDS011;6045;42.682;23.294;2022-07-29T11:07:29;5.28;;;4.07;;
11970;SDS011;6045;42.682;23.294;2022-07-29T11:12:51;4.07;;;3.78;;
11970;SDS011;6045;42.682;23.294;2022-07-29T11:15:18;4.97;;;4.57;;
11970;SDS011;6045;42.682;23.294;2022-07-29T11:18:03;5.60;;;5.18;;
11970;SDS011;6045;42.682;23.294;2022-07-29T11:20:31;4.13;;;3.72;;
11970;SDS011;6045;42.682;23.294;2022-07-29T11:23:00;4.50;;;4.10;;
11970;SDS011;6045;42.682;23.294;2022-07-29T11:25:27;4.40;;;4.10;;
11970;SDS011;6045;42.682;23.294;2022-07-29T11:27:54;4.97;;;4.57;;
11970;SDS011;6045;42.682;23.294;2022-07-29T11:30:47;4.22;;;3.83;;
11970;SDS011;6045;42.682;23.294;2022-07-29T11:33:30;4.40;;;4.10;;
11970;SDS011;6045;42.682;23.294;2022-07-29T11:36:07;4.00;;;3.70;;
11970;SDS011;6045;42.682;23.294;2022-07-29T11:38:37;4.43;;;4.03;;
11970;SDS011;6045;42.682;23.294;2022-07-29T11:41:23;4.30;;;3.92;;
11970;SDS011;6045;42.682;23.294;2022-07-29T11:43:51;4.32;;;4.00;;
11970;SDS011;6045;42.682;23.294;2022-07-29T11:49:18;5.32;;;4.93;;
11970;SDS011;6045;42.682;23.294;2022-07-29T11:51:49;5.45;;;5.00;;
11970;SDS011;6045;42.682;23.294;2022-07-29T11:54:25;5.22;;;4.82;;
11970;SDS011;6045;42.682;23.294;2022-07-29T11:56:54;5.90;;;5.13;;
11970;SDS011;6045;42.682;23.294;2022-07-29T11:59:23;4.90;;;4.40;;
11970;SDS011;6045;42.682;23.294;2022-07-29T12:01:53;5.30;;;4.90;;
11970;SDS011;6045;42.682;23.294;2022-07-29T12:04:21;5.43;;;5.00;;
11970;SDS011;6045;42.682;23.294;2022-07-29T12:06:49;5.57;;;5.07;;
11970;SDS011;6045;42.682;23.294;2022-07-29T12:09:16;5.88;;;5.30;;
11970;SDS011;6045;42.682;23.294;2022-07-29T12:11:45;5.30;;;4.72;;
11970;SDS011;6045;42.682;23.294;2022-07-29T12:14:24;5.65;;;4.82;;
11970;SDS011;6045;42.682;23.294;2022-07-29T12:16:51;4.60;;;4.25;;
11970;SDS011;6045;42.682;23.294;2022-07-29T12:19:18;4.55;;;4.22;;
11970;SDS011;6045;42.682;23.294;2022-07-29T12:21:45;5.05;;;4.63;;
11970;SDS011;6045;42.682;23.294;2022-07-29T12:24:13;4.72;;;4.32;;
11970;SDS011;6045;42.682;23.294;2022-07-29T12:26:50;6.13;;;4.40;;
11970;SDS011;6045;42.682;23.294;2022-07-29T12:29:17;5.57;;;4.65;;
11970;SDS011;6045;42.682;23.294;2022-07-29T12:31:45;4.68;;;4.28;;
11970;SDS011;6045;42.682;23.294;2022-07-29T12:34:12;5.43;;;4.93;;
11970;SDS011;6045;42.682;23.294;2022-07-29T12:36:40;5.50;;;5.10;;
11970;SDS011;6045;42.682;23.294;2022-07-29T12:39:08;5.20;;;4.80;;
11970;SDS011;6045;42.682;23.294;2022-07-29T12:41:36;5.63;;;5.13;;
11970;SDS011;6045;42.682;23.294;2022-07-29T12:44:05;5.93;;;5.43;;
11970;SDS011;6045;42.682;23.294;2022-07-29T12:46:32;5.75;;;5.25;;
11970;SDS011;6045;42.682;23.294;2022-07-29T12:48:58;4.88;;;4.47;;
11970;SDS011;6045;42.682;23.294;2022-07-29T12:51:28;5.88;;;5.38;;
11970;SDS011;6045;42.682;23.294;2022-07-29T12:54:03;5.68;;;5.18;;
11970;SDS011;6045;42.682;23.294;2022-07-29T12:56:32;5.35;;;4.95;;
11970;SDS011;6045;42.682;23.294;2022-07-29T12:58:59;5.20;;;4.80;;
11970;SDS011;6045;42.682;23.294;2022-07-29T13:01:27;5.20;;;4.80;;
11970;SDS011;6045;42.682;23.294;2022-07-29T13:04:02;5.85;;;5.30;;
11970;SDS011;6045;42.682;23.294;2022-07-29T13:06:35;5.65;;;5.25;;
11970;SDS011;6045;42.682;23.294;2022-07-29T13:09:05;5.97;;;5.25;;
11970;SDS011;6045;42.682;23.294;2022-07-29T13:11:34;6.70;;;5.32;;
11970;SDS011;6045;42.682;23.294;2022-07-29T13:14:01;5.93;;;5.15;;
11970;SDS011;6045;42.682;23.294;2022-07-29T13:16:30;5.72;;;5.22;;
11970;SDS011;6045;42.682;23.294;2022-07-29T13:19:04;5.40;;;5.00;;
11970;SDS011;6045;42.682;23.294;2022-07-29T13:21:32;6.13;;;5.55;;
11970;SDS011;6045;42.682;23.294;2022-07-29T13:24:00;6.00;;;5.50;;
11970;SDS011;6045;42.682;23.294;2022-07-29T13:26:26;6.00;;;5.40;;
11970;SDS011;6045;42.682;23.294;2022-07-29T13:28:53;5.88;;;5.38;;
11970;SDS011;6045;42.682;23.294;2022-07-29T13:31:20;5.68;;;5.20;;
11970;SDS011;6045;42.682;23.294;2022-07-29T13:33:48;5.70;;;5.07;;
11970;SDS011;6045;42.682;23.294;2022-07-29T13:36:15;5.97;;;5.43;;
11970;SDS011;6045;42.682;23.294;2022-07-29T13:38:42;6.20;;;5.60;;
11970;SDS011;6045;42.682;23.294;2022-07-29T13:41:08;6.28;;;5.68;;
11970;SDS011;6045;42.682;23.294;2022-07-29T13:43:35;5.57;;;5.00;;
11970;SDS011;6045;42.682;23.294;2022-07-29T13:46:02;5.18;;;4.75;;
11970;SDS011;6045;42.682;23.294;2022-07-29T13:48:28;5.13;;;4.72;;
11970;SDS011;6045;42.682;23.294;2022-07-29T13:50:57;5.38;;;4.88;;
11970;SDS011;6045;42.682;23.294;2022-07-29T13:53:24;5.22;;;4.82;;
11970;SDS011;6045;42.682;23.294;2022-07-29T13:55:50;5.57;;;5.07;;
11970;SDS011;6045;42.682;23.294;2022-07-29T13:58:18;5.53;;;5.03;;
11970;SDS011;6045;42.682;23.294;2022-07-29T14:00:44;4.70;;;4.40;;
11970;SDS011;6045;42.682;23.294;2022-07-29T14:03:11;5.32;;;4.85;;
11970;SDS011;6045;42.682;23.294;2022-07-29T14:05:38;5.60;;;5.10;;
11970;SDS011;6045;42.682;23.294;2022-07-29T14:08:06;4.97;;;4.57;;
11970;SDS011;6045;42.682;23.294;2022-07-29T14:10:33;5.53;;;5.03;;
11970;SDS011;6045;42.682;23.294;2022-07-29T14:13:00;5.45;;;5.00;;
11970;SDS011;6045;42.682;23.294;2022-07-29T14:15:27;5.15;;;4.75;;
11970;SDS011;6045;42.682;23.294;2022-07-29T14:17:54;5.45;;;4.93;;
11970;SDS011;6045;42.682;23.294;2022-07-29T14:20:20;5.50;;;5.00;;
11970;SDS011;6045;42.682;23.294;2022-07-29T14:22:47;5.32;;;4.93;;
11970;SDS011;6045;42.682;23.294;2022-07-29T14:25:15;5.60;;;5.10;;
11970;SDS011;6045;42.682;23.294;2022-07-29T14:27:42;5.45;;;4.95;;
11970;SDS011;6045;42.682;23.294;2022-07-29T14:30:09;6.22;;;5.65;;
11970;SDS011;6045;42.682;23.294;2022-07-29T14:32:37;6.10;;;5.60;;
11970;SDS011;6045;42.682;23.294;2022-07-29T14:35:04;5.88;;;5.28;;
11970;SDS011;6045;42.682;23.294;2022-07-29T14:37:31;5.57;;;5.10;;
11970;SDS011;6045;42.682;23.294;2022-07-29T14:39:59;6.28;;;5.68;;
11970;SDS011;6045;42.682;23.294;2022-07-29T14:42:29;6.13;;;5.63;;
11970;SDS011;6045;42.682;23.294;2022-07-29T14:44:57;5.95;;;5.03;;
11970;SDS011;6045;42.682;23.294;2022-07-29T14:47:24;5.50;;;5.00;;
11970;SDS011;6045;42.682;23.294;2022-07-29T14:49:50;5.45;;;4.95;;
11970;SDS011;6045;42.682;23.294;2022-07-29T14:52:17;5.93;;;5.50;;
11970;SDS011;6045;42.682;23.294;2022-07-29T14:54:44;5.40;;;4.90;;
11970;SDS011;6045;42.682;23.294;2022-07-29T14:57:11;6.30;;;5.70;;
11970;SDS011;6045;42.682;23.294;2022-07-29T14:59:39;5.50;;;5.00;;
11970;SDS011;6045;42.682;23.294;2022-07-29T15:02:06;5.47;;;5.07;;
11970;SDS011;6045;42.682;23.294;2022-07-29T15:04:33;5.75;;;5.25;;
11970;SDS011;6045;42.682;23.294;2022-07-29T15:06:59;5.90;;;5.38;;